Time;durP1;ratioP1;P1;durP2;ratioP2;P2;SDS_P1;SDS_P2;PMS_P1;PMS_P2;Temp;Humidity;BMP_temperature;BMP_pressure;BME280_temperature;BME280_humidity;BME280_pressure;Samples;Min_cycle;Max_cycle;Signal;HPM_P1;HPM_P2
2022/10/23 00:01:28;;;;;;;22.27;11.85;;;11.50;99.90;;;;;;5018966;28;20548;-62
2022/10/23 00:04:03;;;;;;;12.80;8.05;;;11.50;99.90;;;;;;5023120;28;20488;-63
2022/10/23 00:06:34;;;;;;;21.20;9.57;;;11.50;99.90;;;;;;5019049;28;20327;-62
2022/10/23 00:09:00;;;;;;;24.13;11.30;;;11.50;99.90;;;;;;5002342;28;20043;-63
2022/10/23 00:11:28;;;;;;;24.75;10.85;;;11.50;99.90;;;;;;4994341;28;20523;-62
2022/10/23 00:13:56;;;;;;;21.23;11.73;;;11.50;99.90;;;;;;5025847;28;20447;-63
2022/10/23 00:16:22;;;;;;;16.67;8.45;;;11.60;99.90;;;;;;5020663;28;20037;-62
2022/10/23 00:18:48;;;;;;;16.83;8.93;;;11.60;99.90;;;;;;5021565;28;20479;-63
2022/10/23 00:21:15;;;;;;;22.90;10.73;;;11.60;99.90;;;;;;5001507;28;20052;-61
2022/10/23 00:23:43;;;;;;;20.90;9.55;;;11.60;99.90;;;;;;5012722;28;20038;-62
2022/10/23 00:26:13;;;;;;;15.38;8.77;;;11.50;99.90;;;;;;5010180;28;20045;-62
2022/10/23 00:28:39;;;;;;;19.55;11.25;;;11.50;99.90;;;;;;5022027;28;20183;-63
2022/10/23 00:31:05;;;;;;;18.00;9.35;;;11.40;99.90;;;;;;5026372;28;20107;-64
2022/10/23 00:33:35;;;;;;;18.75;11.55;;;11.50;99.90;;;;;;5028655;28;20041;-62
2022/10/23 00:36:04;;;;;;;15.35;8.63;;;11.40;99.90;;;;;;5030786;28;20404;-63
2022/10/23 00:38:30;;;;;;;15.52;8.85;;;11.40;99.90;;;;;;5038565;28;20413;-62
2022/10/23 00:40:55;;;;;;;14.32;7.72;;;11.40;99.90;;;;;;5034454;28;20056;-63
2022/10/23 00:43:25;;;;;;;16.52;8.10;;;11.40;99.90;;;;;;5036476;28;20445;-62
2022/10/23 00:45:51;;;;;;;12.23;7.47;;;11.40;99.90;;;;;;5019288;28;20041;-62
2022/10/23 00:48:17;;;;;;;25.85;10.75;;;11.40;99.90;;;;;;5041680;28;20045;-62
2022/10/23 00:50:45;;;;;;;13.73;8.88;;;11.30;99.90;;;;;;5028921;28;20085;-62
2022/10/23 00:53:12;;;;;;;12.98;7.90;;;11.30;99.90;;;;;;5038316;28;20528;-62
2022/10/23 00:55:44;;;;;;;14.15;7.90;;;11.30;99.90;;;;;;5028620;28;20455;-62
2022/10/23 00:58:10;;;;;;;14.07;7.57;;;11.30;99.90;;;;;;5027517;28;20610;-62
2022/10/23 01:00:47;;;;;;;11.68;6.95;;;11.20;99.90;;;;;;5037006;28;20327;-61
2022/10/23 01:03:15;;;;;;;12.10;8.20;;;11.30;99.90;;;;;;5033661;28;20029;-63
2022/10/23 01:05:52;;;;;;;13.32;7.47;;;11.20;99.90;;;;;;5014992;28;20046;-64
2022/10/23 01:08:24;;;;;;;11.43;7.03;;;11.10;99.90;;;;;;5032754;28;20136;-62
2022/10/23 01:11:19;;;;;;;16.05;8.10;;;11.10;99.90;;;;;;5039471;28;20029;-62
2022/10/23 01:14:01;;;;;;;32.20;9.95;;;11.10;99.90;;;;;;5020239;28;20122;-61
2022/10/23 01:17:04;;;;;;;15.68;9.15;;;11.10;99.90;;;;;;5016742;28;20179;-62
2022/10/23 01:19:47;;;;;;;13.77;8.10;;;11.10;99.90;;;;;;4995789;28;20132;-62
2022/10/23 01:22:33;;;;;;;18.13;10.07;;;11.10;99.90;;;;;;5039950;28;20098;-62
2022/10/23 01:25:16;;;;;;;16.70;9.48;;;11.20;99.90;;;;;;5017129;28;20048;-63
2022/10/23 01:27:48;;;;;;;15.25;8.18;;;11.10;99.90;;;;;;5044969;28;20297;-61
2022/10/23 01:30:15;;;;;;;12.77;8.52;;;11.10;99.90;;;;;;5040446;28;20377;-62
2022/10/23 01:32:48;;;;;;;17.15;9.85;;;11.00;99.90;;;;;;5025520;28;20131;-62
2022/10/23 01:35:44;;;;;;;15.68;8.48;;;11.00;99.90;;;;;;5038186;28;20147;-60
2022/10/23 01:38:25;;;;;;;14.82;8.10;;;11.00;99.90;;;;;;5038713;28;20061;-62
2022/10/23 01:41:10;;;;;;;16.73;10.48;;;11.00;99.90;;;;;;5013509;28;20250;-64
2022/10/23 01:43:52;;;;;;;14.32;8.98;;;11.00;99.90;;;;;;4998252;28;20229;-62
2022/10/23 01:46:20;;;;;;;17.15;9.90;;;11.00;99.90;;;;;;5029383;28;20554;-62
2022/10/23 01:48:51;;;;;;;16.65;8.55;;;11.00;99.90;;;;;;5011314;28;20201;-62
2022/10/23 01:51:19;;;;;;;10.60;7.57;;;10.90;99.90;;;;;;5025392;28;20047;-62
2022/10/23 01:53:47;;;;;;;16.83;8.38;;;10.90;99.90;;;;;;5029889;28;20049;-61
2022/10/23 01:56:24;;;;;;;11.73;8.45;;;10.90;99.90;;;;;;5018161;28;20174;-62
2022/10/23 01:58:52;;;;;;;14.82;7.88;;;10.90;99.90;;;;;;5009131;28;20103;-62
2022/10/23 02:01:21;;;;;;;14.10;7.72;;;10.90;99.90;;;;;;5033481;28;20032;-59
2022/10/23 02:03:48;;;;;;;26.70;11.68;;;11.00;99.90;;;;;;5027977;28;20033;-63
2022/10/23 02:06:14;;;;;;;12.57;8.70;;;11.00;99.90;;;;;;5018033;28;20029;-63
2022/10/23 02:08:40;;;;;;;13.88;9.27;;;10.90;99.90;;;;;;4995631;28;20037;-61
2022/10/23 02:11:15;;;;;;;11.85;8.68;;;10.90;99.90;;;;;;5022037;28;20044;-61
2022/10/23 02:14:04;;;;;;;18.85;10.82;;;10.90;99.90;;;;;;5020158;28;20056;-61
2022/10/23 02:16:32;;;;;;;20.63;11.05;;;11.00;99.90;;;;;;5018879;28;20045;-62
2022/10/23 02:19:18;;;;;;;15.77;9.65;;;11.00;99.90;;;;;;5030130;28;20045;-64
2022/10/23 02:22:04;;;;;;;19.27;11.40;;;11.00;99.90;;;;;;5027974;28;20071;-62
2022/10/23 02:24:54;;;;;;;22.77;13.50;;;11.00;99.90;;;;;;5025285;28;20405;-61
2022/10/23 02:27:31;;;;;;;18.67;10.18;;;11.00;99.90;;;;;;4973601;28;20132;-60
2022/10/23 02:30:03;;;;;;;27.73;15.43;;;11.00;99.90;;;;;;5035291;28;20055;-62
2022/10/23 02:32:29;;;;;;;23.98;13.02;;;10.90;99.90;;;;;;5022918;28;20131;-62
2022/10/23 02:34:56;;;;;;;19.10;11.52;;;10.90;99.90;;;;;;5028303;23;20404;-61
2022/10/23 02:37:21;;;;;;;15.57;10.40;;;10.90;99.90;;;;;;5035014;28;20065;-60
2022/10/23 02:39:48;;;;;;;30.67;14.48;;;10.90;99.90;;;;;;5030054;28;20120;-60
2022/10/23 02:42:26;;;;;;;53.00;22.13;;;10.90;99.90;;;;;;5002049;28;20033;-61
2022/10/23 02:45:23;;;;;;;27.38;14.55;;;10.90;99.90;;;;;;5015951;28;20069;-62
2022/10/23 02:48:26;;;;;;;29.90;16.15;;;10.90;99.90;;;;;;5005167;28;20056;-62
2022/10/23 02:51:08;;;;;;;19.98;13.73;;;10.90;99.90;;;;;;5022565;28;20049;-61
2022/10/23 02:53:57;;;;;;;24.15;15.43;;;10.90;99.90;;;;;;5012718;28;20044;-62
2022/10/23 02:56:43;;;;;;;16.55;10.38;;;10.90;99.90;;;;;;5011537;28;20131;-62
2022/10/23 02:59:35;;;;;;;16.00;11.35;;;10.90;99.90;;;;;;4998091;28;20049;-61
2022/10/23 03:02:18;;;;;;;16.85;10.93;;;10.90;99.90;;;;;;4979577;28;20060;-62
2022/10/23 03:04:45;;;;;;;13.57;10.90;;;10.90;99.90;;;;;;5020888;28;20125;-62
2022/10/23 03:07:12;;;;;;;16.55;11.52;;;10.90;99.90;;;;;;5019203;28;20073;-60
2022/10/23 03:09:38;;;;;;;26.75;16.80;;;10.90;99.90;;;;;;5021573;28;20708;-60
2022/10/23 03:12:04;;;;;;;33.00;17.38;;;10.90;99.90;;;;;;5029678;28;20195;-61
2022/10/23 03:14:30;;;;;;;36.90;20.20;;;10.90;99.90;;;;;;5020751;28;20041;-62
2022/10/23 03:16:55;;;;;;;32.83;16.55;;;10.90;99.90;;;;;;5027102;28;20045;-61
2022/10/23 03:19:21;;;;;;;31.67;17.13;;;10.90;99.90;;;;;;5026826;28;20037;-62
2022/10/23 03:21:47;;;;;;;36.72;17.77;;;10.90;99.90;;;;;;5026316;28;20504;-59
2022/10/23 03:24:12;;;;;;;26.38;16.73;;;10.90;99.90;;;;;;5009027;28;20033;-61
2022/10/23 03:26:38;;;;;;;29.40;16.58;;;10.80;99.90;;;;;;5019516;28;20492;-60
2022/10/23 03:29:04;;;;;;;41.45;20.65;;;10.80;99.90;;;;;;5015531;28;20067;-61
2022/10/23 03:31:29;;;;;;;21.77;15.07;;;10.90;99.90;;;;;;5030670;28;20041;-61
2022/10/23 03:33:55;;;;;;;21.05;13.73;;;10.80;99.90;;;;;;5027643;28;20049;-62
2022/10/23 03:36:21;;;;;;;18.77;11.95;;;10.80;99.90;;;;;;5032775;28;20076;-61
2022/10/23 03:38:47;;;;;;;25.38;14.52;;;10.80;99.90;;;;;;4996566;28;20076;-61
2022/10/23 03:41:12;;;;;;;29.20;16.48;;;10.80;99.90;;;;;;5021015;28;20045;-61
2022/10/23 03:43:38;;;;;;;38.83;18.52;;;10.70;99.90;;;;;;5016800;28;20545;-62
2022/10/23 03:46:08;;;;;;;16.35;11.48;;;10.80;99.90;;;;;;4998704;28;20208;-62
2022/10/23 03:48:36;;;;;;;13.35;9.68;;;10.80;99.90;;;;;;5002744;28;20063;-62
2022/10/23 03:51:06;;;;;;;19.30;12.65;;;10.80;99.90;;;;;;5009957;28;20276;-62
2022/10/23 03:53:32;;;;;;;27.88;17.63;;;10.80;99.90;;;;;;5006681;28;20587;-62
2022/10/23 03:55:58;;;;;;;38.42;20.02;;;10.80;99.90;;;;;;5008450;28;20123;-62
2022/10/23 03:58:23;;;;;;;22.13;13.73;;;10.80;99.90;;;;;;4991363;28;20045;-62
2022/10/23 04:00:49;;;;;;;27.67;17.95;;;10.90;99.90;;;;;;5007826;28;20408;-62
2022/10/23 04:03:15;;;;;;;32.80;19.20;;;10.90;99.90;;;;;;5014137;28;20292;-61
2022/10/23 04:05:41;;;;;;;28.42;16.77;;;10.90;99.90;;;;;;5010932;28;20096;-61
2022/10/23 04:08:08;;;;;;;25.38;15.05;;;10.90;99.90;;;;;;4974970;28;20120;-60
2022/10/23 04:10:33;;;;;;;32.40;18.88;;;10.90;99.90;;;;;;5001764;28;21747;-62
2022/10/23 04:12:59;;;;;;;21.67;13.25;;;10.90;99.90;;;;;;5012882;28;20048;-60
2022/10/23 04:15:25;;;;;;;19.42;12.73;;;10.90;99.90;;;;;;4993792;28;20131;-61
2022/10/23 04:17:51;;;;;;;34.33;19.42;;;10.90;99.90;;;;;;5019256;28;20033;-62
2022/10/23 04:20:16;;;;;;;26.38;16.98;;;10.90;99.90;;;;;;5016572;28;20111;-61
2022/10/23 04:22:42;;;;;;;18.30;13.55;;;10.80;99.90;;;;;;5018349;28;20409;-62
2022/10/23 04:25:08;;;;;;;25.73;16.25;;;10.80;99.90;;;;;;5016435;28;20033;-62
2022/10/23 04:27:34;;;;;;;30.05;17.42;;;10.90;99.90;;;;;;5019600;28;20034;-62
2022/10/23 04:30:00;;;;;;;16.38;12.07;;;10.90;99.90;;;;;;5004331;28;20033;-61
2022/10/23 04:32:26;;;;;;;29.60;16.98;;;10.80;99.90;;;;;;5020340;28;20037;-61
2022/10/23 04:34:51;;;;;;;25.60;17.40;;;10.80;99.90;;;;;;5011341;28;20036;-60
2022/10/23 04:37:17;;;;;;;33.30;18.67;;;10.80;99.90;;;;;;5022837;28;20025;-62
2022/10/23 04:39:43;;;;;;;26.60;17.65;;;10.80;99.90;;;;;;5023782;28;20124;-62
2022/10/23 04:42:08;;;;;;;30.38;18.23;;;10.80;99.90;;;;;;4999233;28;20069;-61
2022/10/23 04:44:34;;;;;;;30.35;20.25;;;10.70;99.90;;;;;;5025398;28;20130;-62
2022/10/23 04:47:00;;;;;;;33.83;20.23;;;10.80;99.90;;;;;;5015302;28;20042;-60
2022/10/23 04:49:25;;;;;;;33.92;18.92;;;10.80;99.90;;;;;;5028312;28;20080;-61
2022/10/23 04:51:51;;;;;;;25.67;17.63;;;10.80;99.90;;;;;;4967415;28;20042;-60
2022/10/23 04:54:17;;;;;;;40.22;22.88;;;10.90;99.90;;;;;;5003517;28;20063;-62
2022/10/23 04:56:43;;;;;;;30.70;20.63;;;10.90;99.90;;;;;;4998092;28;20083;-62
2022/10/23 04:59:09;;;;;;;29.88;20.42;;;10.80;99.90;;;;;;5014431;28;20572;-62
2022/10/23 05:01:35;;;;;;;28.10;19.85;;;10.80;99.90;;;;;;5003912;28;20049;-61
2022/10/23 05:04:00;;;;;;;31.55;21.25;;;10.80;99.90;;;;;;5002409;28;20033;-61
2022/10/23 05:06:26;;;;;;;30.25;20.13;;;10.80;99.90;;;;;;5016702;28;20443;-62
2022/10/23 05:08:52;;;;;;;31.20;18.42;;;10.80;99.90;;;;;;5013894;28;20041;-61
2022/10/23 05:11:17;;;;;;;30.02;20.63;;;10.80;99.90;;;;;;5021272;28;20389;-62
2022/10/23 05:13:43;;;;;;;23.52;17.23;;;10.80;99.90;;;;;;4995197;28;20041;-60
2022/10/23 05:16:11;;;;;;;19.58;14.65;;;10.80;99.90;;;;;;5015892;28;20037;-61
2022/10/23 05:18:44;;;;;;;27.05;18.05;;;10.80;99.90;;;;;;5008015;28;20545;-60
2022/10/23 05:21:17;;;;;;;24.88;17.95;;;10.80;99.90;;;;;;5027826;28;20025;-60
2022/10/23 05:23:44;;;;;;;26.58;18.60;;;10.80;99.90;;;;;;4984345;28;20033;-61
2022/10/23 05:26:10;;;;;;;22.67;18.05;;;10.80;99.90;;;;;;5003060;28;20128;-61
2022/10/23 05:28:35;;;;;;;28.30;19.20;;;10.80;99.90;;;;;;5009225;28;20049;-62
2022/10/23 05:31:03;;;;;;;24.55;17.23;;;10.40;99.90;;;;;;5009748;28;20523;-62
2022/10/23 05:33:30;;;;;;;25.55;18.25;;;10.80;99.90;;;;;;5009714;28;20073;-61
2022/10/23 05:35:57;;;;;;;26.52;18.48;;;10.80;99.90;;;;;;5027944;28;20112;-62
2022/10/23 05:38:23;;;;;;;32.88;21.20;;;10.90;99.90;;;;;;5024679;28;20123;-61
2022/10/23 05:40:51;;;;;;;32.95;22.23;;;10.90;99.90;;;;;;4992435;28;20052;-62
2022/10/23 05:43:16;;;;;;;34.80;21.38;;;10.90;99.90;;;;;;5026858;28;20065;-61
2022/10/23 05:45:42;;;;;;;33.85;21.83;;;10.90;99.90;;;;;;4991413;28;20069;-62
2022/10/23 05:48:08;;;;;;;25.73;19.88;;;10.90;99.90;;;;;;4996108;28;20508;-62
2022/10/23 05:50:37;;;;;;;29.77;20.75;;;10.90;99.90;;;;;;5014228;28;20417;-60
2022/10/23 05:53:02;;;;;;;29.67;20.90;;;10.90;99.90;;;;;;4985256;28;20060;-62
2022/10/23 05:55:28;;;;;;;32.78;20.20;;;10.90;99.90;;;;;;5009824;28;20037;-61
2022/10/23 05:57:54;;;;;;;34.20;22.95;;;10.90;99.90;;;;;;5017247;28;20300;-61
2022/10/23 06:00:20;;;;;;;29.77;19.65;;;10.90;99.90;;;;;;5012819;28;20061;-62
2022/10/23 06:02:45;;;;;;;34.83;22.27;;;10.90;99.90;;;;;;5019897;28;20050;-62
2022/10/23 06:05:11;;;;;;;26.73;18.58;;;10.90;99.90;;;;;;5023289;28;20129;-62
2022/10/23 06:07:37;;;;;;;32.30;19.65;;;10.90;99.90;;;;;;4996308;28;20049;-60
2022/10/23 06:10:04;;;;;;;33.15;21.27;;;10.90;99.90;;;;;;5000817;28;20041;-62
2022/10/23 06:12:31;;;;;;;25.60;18.08;;;10.90;99.90;;;;;;5005246;28;20083;-62
2022/10/23 06:14:57;;;;;;;26.17;18.40;;;11.00;99.90;;;;;;5001433;28;20046;-62
2022/10/23 06:17:23;;;;;;;32.55;21.13;;;10.90;99.90;;;;;;5008674;28;20519;-61
2022/10/23 06:19:49;;;;;;;34.40;22.95;;;10.90;99.90;;;;;;4980080;28;20165;-61
2022/10/23 06:22:14;;;;;;;35.40;21.63;;;10.90;99.90;;;;;;5011609;28;20055;-60
2022/10/23 06:24:40;;;;;;;29.05;20.02;;;11.00;99.90;;;;;;4992624;28;20140;-61
2022/10/23 06:27:06;;;;;;;34.97;21.77;;;11.00;99.90;;;;;;4991985;28;20060;-60
2022/10/23 06:29:32;;;;;;;35.97;21.20;;;11.00;99.90;;;;;;4989608;28;20500;-62
2022/10/23 06:31:57;;;;;;;43.58;27.05;;;11.00;99.90;;;;;;5008955;28;20056;-62
2022/10/23 06:34:23;;;;;;;29.08;20.85;;;11.00;99.90;;;;;;4985781;28;20041;-61
2022/10/23 06:36:49;;;;;;;26.83;19.73;;;11.00;99.90;;;;;;4994988;28;20491;-62
2022/10/23 06:39:15;;;;;;;26.67;18.70;;;11.00;99.90;;;;;;4988627;28;20136;-60
2022/10/23 06:41:41;;;;;;;26.98;19.83;;;11.00;99.90;;;;;;4987640;28;20142;-62
2022/10/23 06:44:09;;;;;;;34.00;21.67;;;11.10;99.90;;;;;;4994253;28;20046;-61
2022/10/23 06:46:35;;;;;;;29.98;18.85;;;11.10;99.90;;;;;;5013547;28;20077;-61
2022/10/23 06:49:00;;;;;;;32.78;18.80;;;11.10;99.90;;;;;;5004835;28;20496;-60
2022/10/23 06:51:28;;;;;;;32.40;21.75;;;11.10;99.90;;;;;;5011163;28;20037;-60
2022/10/23 06:53:55;;;;;;;35.38;22.95;;;11.10;99.90;;;;;;4986972;28;20052;-59
2022/10/23 06:56:21;;;;;;;51.65;22.15;;;11.20;99.90;;;;;;5014534;28;20060;-61
2022/10/23 06:58:47;;;;;;;32.20;19.60;;;11.20;99.90;;;;;;5026417;28;20046;-61
2022/10/23 07:01:15;;;;;;;34.42;20.98;;;11.20;99.90;;;;;;5000035;28;20373;-61
2022/10/23 07:03:41;;;;;;;29.40;18.77;;;11.20;99.90;;;;;;5016193;28;20480;-61
2022/10/23 07:06:09;;;;;;;29.30;20.33;;;11.20;99.90;;;;;;5021323;28;20401;-60
2022/10/23 07:08:35;;;;;;;25.50;17.83;;;11.30;99.90;;;;;;5005413;28;20049;-61
2022/10/23 07:11:06;;;;;;;29.77;19.00;;;11.30;99.90;;;;;;5002863;28;20088;-61
2022/10/23 07:13:34;;;;;;;26.95;16.92;;;11.30;99.90;;;;;;5004789;28;20049;-61
2022/10/23 07:16:19;;;;;;;43.65;21.08;;;11.40;99.90;;;;;;4987337;28;20045;-59
2022/10/23 07:18:46;;;;;;;28.13;19.73;;;11.40;99.90;;;;;;4986325;28;20241;-61
2022/10/23 07:21:11;;;;;;;33.15;19.70;;;11.50;99.90;;;;;;5003248;28;20041;-60
2022/10/23 07:23:37;;;;;;;30.88;19.27;;;11.50;99.90;;;;;;5031922;28;20501;-58
2022/10/23 07:26:14;;;;;;;32.13;19.88;;;11.50;99.90;;;;;;5026298;28;20301;-60
2022/10/23 07:28:42;;;;;;;35.35;20.30;;;11.60;99.90;;;;;;5008876;28;20547;-60
2022/10/23 07:31:08;;;;;;;32.72;19.63;;;11.60;99.90;;;;;;4991118;28;20117;-59
2022/10/23 07:33:34;;;;;;;27.05;17.90;;;11.60;99.90;;;;;;5036280;28;20402;-61
2022/10/23 07:36:02;;;;;;;32.25;20.20;;;11.60;99.90;;;;;;5007322;28;20803;-63
2022/10/23 07:38:28;;;;;;;30.63;19.55;;;11.70;99.90;;;;;;5021224;28;20070;-61
2022/10/23 07:40:56;;;;;;;35.80;20.50;;;11.70;99.90;;;;;;5004656;28;20041;-61
2022/10/23 07:43:22;;;;;;;27.92;19.48;;;11.80;99.90;;;;;;5024423;28;20042;-61
2022/10/23 07:45:48;;;;;;;27.35;16.63;;;12.20;99.90;;;;;;5026770;28;20052;-61
2022/10/23 07:48:15;;;;;;;22.83;16.98;;;11.80;99.90;;;;;;5004371;28;20065;-61
2022/10/23 07:50:40;;;;;;;28.40;18.60;;;11.80;99.90;;;;;;4996054;28;20072;-61
2022/10/23 07:53:10;;;;;;;28.65;19.40;;;11.90;99.90;;;;;;4980825;28;20515;-59
2022/10/23 07:55:35;;;;;;;34.83;20.60;;;11.90;99.90;;;;;;5027449;28;20042;-60
2022/10/23 07:58:01;;;;;;;30.33;19.98;;;11.90;99.90;;;;;;4997487;28;20090;-60
2022/10/23 08:00:26;;;;;;;36.47;20.05;;;12.00;99.90;;;;;;5021932;28;20044;-60
2022/10/23 08:02:52;;;;;;;29.75;19.40;;;12.00;99.90;;;;;;5004906;28;20037;-60
2022/10/23 08:05:19;;;;;;;30.17;17.50;;;12.00;99.90;;;;;;5005592;28;20464;-60
2022/10/23 08:07:45;;;;;;;26.45;18.40;;;12.10;99.90;;;;;;5007460;28;20068;-61
2022/10/23 08:10:10;;;;;;;33.17;18.88;;;12.10;99.90;;;;;;5025733;28;20033;-59
2022/10/23 08:12:36;;;;;;;29.77;18.38;;;12.10;99.90;;;;;;5009884;28;20111;-62
2022/10/23 08:15:03;;;;;;;29.25;18.30;;;12.10;99.90;;;;;;5008900;28;20088;-61
2022/10/23 08:17:29;;;;;;;33.20;18.00;;;12.20;99.90;;;;;;4993034;28;20400;-60
2022/10/23 08:19:54;;;;;;;26.92;16.65;;;12.20;99.90;;;;;;5005530;28;20063;-62
2022/10/23 08:22:20;;;;;;;28.92;18.55;;;12.20;99.90;;;;;;5017814;28;20133;-60
2022/10/23 08:24:46;;;;;;;29.50;18.13;;;12.30;99.90;;;;;;4991518;28;20120;-60
2022/10/23 08:27:12;;;;;;;27.13;17.63;;;12.30;99.90;;;;;;4994615;28;20038;-61
2022/10/23 08:29:38;;;;;;;28.23;17.00;;;12.30;99.90;;;;;;4996651;28;20053;-61
2022/10/23 08:32:04;;;;;;;26.88;17.25;;;12.40;99.90;;;;;;5015603;28;20037;-61
2022/10/23 08:34:30;;;;;;;25.20;18.13;;;12.40;99.90;;;;;;5004260;22;20043;-64
2022/10/23 08:36:56;;;;;;;29.20;17.92;;;12.40;99.90;;;;;;4996361;28;20554;-61
2022/10/23 08:39:21;;;;;;;23.00;15.65;;;12.50;99.90;;;;;;4999685;28;20041;-64
2022/10/23 08:41:50;;;;;;;28.98;16.67;;;12.60;99.90;;;;;;4982929;28;20077;-61
2022/10/23 08:44:29;;;;;;;24.95;16.73;;;12.60;99.90;;;;;;4981205;28;21486;-63
2022/10/23 08:47:01;;;;;;;23.30;15.15;;;12.60;99.90;;;;;;4981211;28;20049;-62
2022/10/23 08:49:46;;;;;;;24.00;16.17;;;12.70;99.90;;;;;;4981393;28;20091;-63
2022/10/23 08:52:51;;;;;;;26.90;16.08;;;12.70;99.90;;;;;;4985935;28;20045;-62
2022/10/23 08:55:39;;;;;;;35.30;17.90;;;12.80;99.90;;;;;;4969354;28;20060;-63
2022/10/23 08:58:09;;;;;;;20.35;15.25;;;12.80;99.90;;;;;;4978793;28;20042;-62
2022/10/23 09:00:35;;;;;;;20.48;14.50;;;12.90;99.90;;;;;;4987382;28;20056;-64
2022/10/23 09:03:03;;;;;;;24.02;15.38;;;12.90;99.90;;;;;;4986005;28;20054;-64
2022/10/23 09:05:38;;;;;;;23.42;15.40;;;13.00;99.90;;;;;;4977017;28;20050;-62
2022/10/23 09:08:19;;;;;;;25.25;14.60;;;13.00;99.90;;;;;;4992580;28;20121;-63
2022/10/23 09:11:03;;;;;;;23.50;14.98;;;13.10;99.90;;;;;;5006753;28;20045;-61
2022/10/23 09:13:49;;;;;;;20.83;14.40;;;13.20;99.90;;;;;;5003032;28;20125;-64
2022/10/23 09:16:37;;;;;;;20.60;14.38;;;13.30;99.90;;;;;;4993614;28;20046;-60
2022/10/23 09:19:11;;;;;;;24.17;13.88;;;13.30;99.90;;;;;;5002581;28;20042;-62
2022/10/23 09:21:37;;;;;;;22.95;13.77;;;13.40;99.90;;;;;;4999147;28;20042;-63
2022/10/23 09:24:03;;;;;;;24.95;14.23;;;13.40;99.90;;;;;;5008895;28;20099;-64
2022/10/23 09:26:28;;;;;;;19.85;13.38;;;13.40;99.90;;;;;;4992410;28;20048;-62
2022/10/23 09:29:06;;;;;;;21.90;14.45;;;13.50;99.90;;;;;;4995954;28;20036;-62
2022/10/23 09:31:32;;;;;;;17.75;12.27;;;13.50;99.90;;;;;;4998767;28;20500;-62
2022/10/23 09:34:00;;;;;;;22.27;12.60;;;13.60;99.90;;;;;;4994231;28;20049;-62
2022/10/23 09:36:28;;;;;;;18.83;12.38;;;13.60;99.90;;;;;;4991668;28;20070;-62
2022/10/23 09:38:57;;;;;;;20.17;12.32;;;13.70;99.90;;;;;;4981793;28;20042;-63
2022/10/23 09:41:41;;;;;;;16.00;11.05;;;13.70;99.90;;;;;;5007089;28;20053;-61
2022/10/23 09:44:07;;;;;;;;;;;13.80;99.90;;;;;;4993453;28;20047;-61
2022/10/23 09:46:41;;;;;;;18.38;11.05;;;13.90;99.90;;;;;;4985628;28;19922;-62
2022/10/23 09:49:23;;;;;;;17.27;11.02;;;14.00;99.90;;;;;;4995640;28;20033;-62
2022/10/23 09:51:54;;;;;;;17.13;10.43;;;14.00;99.90;;;;;;4989763;28;20049;-62
2022/10/23 09:54:22;;;;;;;16.73;10.73;;;14.10;99.90;;;;;;4984345;28;20061;-62
2022/10/23 09:56:55;;;;;;;15.77;10.52;;;14.10;99.90;;;;;;4977372;28;20525;-62
2022/10/23 09:59:25;;;;;;;15.73;10.48;;;14.20;99.90;;;;;;4986307;28;20042;-62
2022/10/23 10:01:54;;;;;;;13.68;9.52;;;14.20;99.90;;;;;;4971886;28;20122;-64
2022/10/23 10:04:32;;;;;;;20.58;9.95;;;14.20;99.90;;;;;;4989244;28;20042;-59
2022/10/23 10:06:58;;;;;;;20.83;10.68;;;14.20;99.90;;;;;;4988493;28;20160;-63
2022/10/23 10:09:24;;;;;;;13.40;9.27;;;14.20;99.90;;;;;;4975359;28;20048;-62
2022/10/23 10:11:57;;;;;;;18.33;9.93;;;14.30;99.90;;;;;;4981851;28;20049;-62
2022/10/23 10:14:37;;;;;;;13.67;9.20;;;14.40;99.90;;;;;;4988231;28;20088;-63
2022/10/23 10:17:31;;;;;;;12.80;8.98;;;14.40;99.90;;;;;;4969924;28;20301;-63
2022/10/23 10:20:12;;;;;;;13.57;8.65;;;14.50;99.90;;;;;;4988081;28;20042;-62
2022/10/23 10:23:26;;;;;;;16.55;9.05;;;14.50;99.90;;;;;;4974564;28;20037;-62
2022/10/23 10:26:13;;;;;;;17.52;9.15;;;14.60;99.90;;;;;;4966658;28;20398;-62
2022/10/23 10:29:11;;;;;;;15.35;9.00;;;14.70;99.90;;;;;;4966013;28;20129;-62
2022/10/23 10:31:57;;;;;;;12.20;7.68;;;14.70;99.90;;;;;;4976401;28;20066;-62
2022/10/23 10:34:32;;;;;;;11.40;7.93;;;14.80;99.90;;;;;;4986518;28;20229;-63
2022/10/23 10:37:11;;;;;;;17.33;8.63;;;14.90;99.90;;;;;;4985795;28;20038;-61
2022/10/23 10:39:43;;;;;;;13.07;8.10;;;15.00;99.90;;;;;;4996205;28;20260;-61
2022/10/23 10:42:30;;;;;;;16.33;9.02;;;15.10;99.90;;;;;;4999225;28;20512;-60
2022/10/23 10:45:07;;;;;;;12.55;8.27;;;15.20;99.90;;;;;;4993572;28;20103;-62
2022/10/23 10:47:46;;;;;;;12.25;7.13;;;15.20;99.90;;;;;;4978799;28;20092;-61
2022/10/23 10:50:20;;;;;;;9.63;7.10;;;15.30;99.90;;;;;;4993483;28;20045;-60
2022/10/23 10:53:02;;;;;;;13.38;6.63;;;15.30;99.90;;;;;;4993571;28;20038;-62
2022/10/23 10:55:40;;;;;;;12.20;6.47;;;15.40;99.90;;;;;;4997936;28;20126;-61
2022/10/23 10:58:25;;;;;;;9.52;6.28;;;15.50;99.90;;;;;;4995204;28;20041;-61
2022/10/23 11:00:57;;;;;;;13.23;6.53;;;15.60;99.90;;;;;;4993354;28;20489;-61
2022/10/23 11:03:42;;;;;;;8.63;6.10;;;15.60;99.90;;;;;;4989252;28;20034;-62
2022/10/23 11:06:30;;;;;;;11.02;5.95;;;15.60;99.90;;;;;;4996221;28;20034;-59
2022/10/23 11:09:01;;;;;;;8.55;5.10;;;15.70;99.90;;;;;;4996592;28;20034;-57
2022/10/23 11:11:42;;;;;;;9.25;5.40;;;15.70;99.90;;;;;;5001352;28;20378;-60
2022/10/23 11:14:20;;;;;;;9.25;5.13;;;15.70;99.90;;;;;;5004144;28;20061;-61
2022/10/23 11:16:50;;;;;;;9.75;5.32;;;15.80;99.90;;;;;;5002460;28;20038;-62
2022/10/23 11:19:34;;;;;;;6.22;4.00;;;15.80;99.90;;;;;;4981440;28;20052;-61
2022/10/23 11:22:21;;;;;;;6.90;3.78;;;15.80;99.90;;;;;;5000367;28;20056;-59
2022/10/23 11:25:03;;;;;;;12.73;4.30;;;15.90;99.90;;;;;;5005877;28;20054;-61
2022/10/23 11:27:37;;;;;;;9.35;4.53;;;15.90;99.90;;;;;;4991760;28;20141;-62
2022/10/23 11:30:23;;;;;;;11.73;5.68;;;16.00;99.90;;;;;;5001700;28;20044;-61
2022/10/23 11:33:23;;;;;;;9.80;5.13;;;16.00;99.90;;;;;;5001491;28;20072;-60
2022/10/23 11:36:16;;;;;;;10.82;4.30;;;16.10;99.90;;;;;;4997990;28;20038;-60
2022/10/23 11:38:48;;;;;;;9.20;4.07;;;16.10;99.90;;;;;;4997152;28;20034;-62
2022/10/23 11:41:23;;;;;;;7.03;4.38;;;16.00;99.90;;;;;;5001831;28;20333;-58
2022/10/23 11:44:02;;;;;;;8.60;3.92;;;16.00;99.90;;;;;;5006314;28;20464;-59
2022/10/23 11:46:37;;;;;;;9.07;3.92;;;16.00;99.90;;;;;;5005421;28;20035;-61
2022/10/23 11:49:04;;;;;;;8.90;4.07;;;16.00;99.90;;;;;;5007214;28;20428;-59
2022/10/23 11:51:30;;;;;;;10.15;4.03;;;16.00;99.90;;;;;;5002097;28;20034;-62
2022/10/23 11:54:14;;;;;;;10.50;4.20;;;16.00;99.90;;;;;;4996564;28;20060;-63
2022/10/23 11:57:06;;;;;;;7.97;4.18;;;16.00;99.90;;;;;;4988644;28;20489;-61
2022/10/23 11:59:40;;;;;;;9.07;4.85;;;16.00;99.90;;;;;;5010993;28;20046;-61
2022/10/23 12:02:37;;;;;;;12.13;4.70;;;16.00;99.90;;;;;;5007834;28;20037;-58
2022/10/23 12:05:34;;;;;;;6.75;4.10;;;16.00;99.90;;;;;;5011928;28;20045;-61
2022/10/23 12:08:03;;;;;;;5.55;3.67;;;16.00;99.90;;;;;;5009881;28;20499;-58
2022/10/23 12:10:33;;;;;;;6.72;3.45;;;16.00;99.90;;;;;;5005387;28;20042;-61
2022/10/23 12:13:03;;;;;;;7.68;4.07;;;16.00;99.90;;;;;;5008220;28;20401;-58
2022/10/23 12:15:30;;;;;;;8.18;4.20;;;16.00;99.90;;;;;;4988033;28;20042;-59
2022/10/23 12:18:12;;;;;;;7.75;3.65;;;16.00;99.90;;;;;;5008490;28;20697;-59
2022/10/23 12:20:50;;;;;;;10.23;4.00;;;16.00;99.90;;;;;;5000174;28;20042;-60
2022/10/23 12:23:37;;;;;;;8.70;4.35;;;16.00;99.90;;;;;;5015509;28;20041;-61
2022/10/23 12:26:32;;;;;;;7.85;3.40;;;16.00;99.90;;;;;;5009189;28;20408;-60
2022/10/23 12:29:04;;;;;;;;;;;16.00;99.90;;;;;;5004601;28;20046;-60
2022/10/23 12:31:35;;;;;;;8.82;3.45;;;16.00;99.90;;;;;;5005727;28;20287;-61
2022/10/23 12:34:10;;;;;;;9.32;4.03;;;16.00;99.90;;;;;;5007853;28;20115;-60
2022/10/23 12:36:53;;;;;;;8.02;3.70;;;16.00;99.90;;;;;;5009165;28;20056;-62
2022/10/23 12:39:27;;;;;;;7.95;3.75;;;16.00;99.90;;;;;;5007291;28;20037;-61
2022/10/23 12:41:53;;;;;;;6.00;3.50;;;16.00;99.90;;;;;;5013273;28;20065;-61
2022/10/23 12:44:20;;;;;;;6.57;3.25;;;16.00;99.90;;;;;;5002479;28;20042;-58
2022/10/23 12:46:55;;;;;;;6.28;3.15;;;16.00;99.90;;;;;;5004407;28;20054;-60
2022/10/23 12:49:24;;;;;;;7.93;3.47;;;16.00;99.90;;;;;;5005609;28;20041;-59
2022/10/23 12:52:02;;;;;;;7.75;3.65;;;16.00;99.90;;;;;;5006568;28;20327;-60
2022/10/23 12:54:31;;;;;;;11.88;4.13;;;16.00;99.90;;;;;;5005018;28;20045;-58
2022/10/23 12:56:57;;;;;;;11.50;3.72;;;16.00;99.90;;;;;;5017400;28;20048;-60